createdAt,value
2023-04-17T00:02:19.060Z,13.68
2023-04-17T00:04:46.849Z,9.77
2023-04-17T00:07:14.666Z,13.25
2023-04-17T00:09:44.192Z,13.83
2023-04-17T00:12:14.034Z,11.50
2023-04-17T00:14:44.090Z,9.52
2023-04-17T00:17:11.881Z,10.32
2023-04-17T00:19:45.216Z,12.52
2023-04-17T00:22:14.651Z,11.27
2023-04-17T00:24:41.963Z,12.38
2023-04-17T00:27:11.141Z,16.13
2023-04-17T00:29:38.460Z,13.45
2023-04-17T00:32:07.759Z,14.73
2023-04-17T00:34:35.122Z,14.50
2023-04-17T00:37:05.028Z,11.38
2023-04-17T00:39:34.244Z,13.32
2023-04-17T00:42:02.129Z,15.50
2023-04-17T00:44:29.901Z,13.35
2023-04-17T00:47:00.169Z,13.60
2023-04-17T00:49:27.987Z,9.93
2023-04-17T00:51:56.195Z,14.35
2023-04-17T00:54:24.663Z,10.50
2023-04-17T00:56:54.373Z,13.90
2023-04-17T00:59:23.291Z,15.57
2023-04-17T01:01:50.784Z,11.38
2023-04-17T01:04:18.691Z,16.25
2023-04-17T01:06:49.009Z,16.13
2023-04-17T01:09:17.416Z,18.65
2023-04-17T01:11:46.644Z,14.40
2023-04-17T01:14:15.619Z,11.95
2023-04-17T01:16:45.112Z,15.52
2023-04-17T01:19:15.765Z,12.85
2023-04-17T01:21:43.340Z,13.80
2023-04-17T01:24:11.152Z,8.87
2023-04-17T01:26:39.034Z,15.25
2023-04-17T01:29:06.387Z,10.48
2023-04-17T01:31:36.489Z,14.48
2023-04-17T01:34:03.680Z,14.95
2023-04-17T01:36:32.224Z,19.87
2023-04-17T01:38:59.604Z,13.50
2023-04-17T01:41:36.102Z,15.75
2023-04-17T01:44:03.478Z,16.75
2023-04-17T01:46:30.830Z,13.77
2023-04-17T01:48:59.336Z,11.83
2023-04-17T01:51:28.277Z,12.32
2023-04-17T01:53:59.992Z,16.13
2023-04-17T01:56:27.578Z,16.75
2023-04-17T01:58:54.924Z,11.77
2023-04-17T02:01:22.265Z,14.50
2023-04-17T02:03:49.676Z,15.57
2023-04-17T02:06:19.570Z,10.02
2023-04-17T02:08:47.190Z,10.90
2023-04-17T02:11:15.800Z,16.35
2023-04-17T02:13:46.474Z,11.77
2023-04-17T02:16:16.691Z,13.00
2023-04-17T02:18:43.902Z,12.43
2023-04-17T02:21:11.626Z,11.25
2023-04-17T02:23:38.967Z,17.13
2023-04-17T02:26:07.410Z,11.97
2023-04-17T02:28:36.637Z,13.77
2023-04-17T02:31:09.336Z,17.38
2023-04-17T02:33:37.154Z,13.25
2023-04-17T02:36:06.738Z,16.45
2023-04-17T02:38:38.747Z,11.90
2023-04-17T02:41:06.849Z,11.95
2023-04-17T02:43:34.952Z,10.45
2023-04-17T02:46:02.726Z,14.85
2023-04-17T02:48:30.451Z,11.10
2023-04-17T02:50:58.950Z,16.27
2023-04-17T02:53:26.477Z,14.23
2023-04-17T02:55:53.860Z,16.63
2023-04-17T02:58:23.428Z,13.52
2023-04-17T03:00:50.775Z,13.32
2023-04-17T03:03:19.623Z,13.03
2023-04-17T03:05:52.305Z,14.43
2023-04-17T03:08:19.606Z,10.00
2023-04-17T03:10:49.164Z,15.98
2023-04-17T03:13:16.671Z,11.68
2023-04-17T03:15:47.044Z,11.43
2023-04-17T03:18:15.492Z,12.52
2023-04-17T03:20:42.807Z,17.63
2023-04-17T03:23:10.298Z,15.20
2023-04-17T03:25:38.334Z,15.43
2023-04-17T03:28:06.671Z,15.32
2023-04-17T03:30:34.181Z,16.35
2023-04-17T03:33:05.554Z,13.85
2023-04-17T03:35:35.176Z,15.38
2023-04-17T03:38:06.641Z,15.30
2023-04-17T03:40:37.448Z,14.17
2023-04-17T03:43:08.085Z,14.05
2023-04-17T03:45:41.275Z,16.85
2023-04-17T03:48:09.625Z,9.85
2023-04-17T03:50:39.744Z,14.00
2023-04-17T03:53:07.235Z,12.83
2023-04-17T03:55:38.370Z,18.15
2023-04-17T03:58:05.691Z,11.70
2023-04-17T04:00:38.007Z,13.95
2023-04-17T04:03:10.734Z,13.32
2023-04-17T04:05:44.437Z,15.83
2023-04-17T04:08:19.079Z,11.07
2023-04-17T04:11:06.772Z,12.07
2023-04-17T04:13:40.859Z,10.65
2023-04-17T04:16:08.863Z,14.23
2023-04-17T04:18:41.169Z,11.07
2023-04-17T04:21:15.715Z,16.45
2023-04-17T04:23:53.623Z,10.32
2023-04-17T04:26:36.355Z,13.95
2023-04-17T04:29:26.171Z,11.60
2023-04-17T04:32:00.011Z,14.73
2023-04-17T04:34:33.681Z,10.57
2023-04-17T04:37:04.324Z,13.10
2023-04-17T04:39:57.271Z,12.88
2023-04-17T04:42:24.783Z,13.15
2023-04-17T04:45:10.359Z,11.17
2023-04-17T04:47:43.898Z,13.77
2023-04-17T04:50:23.384Z,12.52
2023-04-17T04:52:58.357Z,13.77
2023-04-17T04:55:48.172Z,14.52
2023-04-17T04:58:17.667Z,8.53
2023-04-17T05:00:51.029Z,11.07
2023-04-17T05:03:27.076Z,11.70
2023-04-17T05:05:59.568Z,13.15
2023-04-17T05:11:20.354Z,7.90
2023-04-17T05:13:48.920Z,10.27
2023-04-17T05:16:27.800Z,10.00
2023-04-17T05:18:56.073Z,12.52
2023-04-17T05:21:56.026Z,13.35
2023-04-17T05:24:24.465Z,13.07
2023-04-17T05:27:03.807Z,12.18
2023-04-17T05:29:39.225Z,11.85
2023-04-17T05:32:10.501Z,16.23
2023-04-17T05:34:58.258Z,11.60
2023-04-17T05:37:30.128Z,9.70
2023-04-17T05:39:57.580Z,10.55
2023-04-17T05:42:27.347Z,11.18
2023-04-17T05:44:54.924Z,12.60
2023-04-17T05:47:23.104Z,17.35
2023-04-17T05:50:00.319Z,13.43
2023-04-17T05:52:29.640Z,12.38
2023-04-17T05:54:57.182Z,9.35
2023-04-17T05:57:29.050Z,12.02
2023-04-17T06:00:16.261Z,12.48
2023-04-17T06:02:50.621Z,11.20
2023-04-17T06:05:26.810Z,8.77
2023-04-17T06:07:57.562Z,11.43
2023-04-17T06:10:25.382Z,12.02
2023-04-17T06:12:54.339Z,11.40
2023-04-17T06:15:24.687Z,8.53
2023-04-17T06:17:52.387Z,11.32
2023-04-17T06:20:20.717Z,10.88
2023-04-17T06:22:51.610Z,11.10
2023-04-17T06:25:20.808Z,10.93
2023-04-17T06:27:50.498Z,10.27
2023-04-17T06:30:25.150Z,10.65
2023-04-17T06:33:01.640Z,9.48
2023-04-17T06:35:31.308Z,13.13
2023-04-17T06:38:06.265Z,11.75
2023-04-17T06:40:36.539Z,11.10
2023-04-17T06:43:06.225Z,9.63
2023-04-17T06:45:42.607Z,10.52
2023-04-17T06:48:13.257Z,11.25
2023-04-17T06:50:40.715Z,14.15
2023-04-17T06:53:14.316Z,10.53
2023-04-17T06:55:41.596Z,12.57
2023-04-17T06:58:12.764Z,9.23
2023-04-17T07:00:42.348Z,11.48
2023-04-17T07:03:29.628Z,9.88
2023-04-17T07:06:00.319Z,10.43
2023-04-17T07:08:27.638Z,11.40
2023-04-17T07:10:58.193Z,12.43
2023-04-17T07:13:29.663Z,13.38
2023-04-17T07:16:00.703Z,10.88
2023-04-17T07:18:34.372Z,11.43
2023-04-17T07:21:06.983Z,10.18
2023-04-17T07:23:36.695Z,10.77
2023-04-17T07:26:10.522Z,11.60
2023-04-17T07:28:38.524Z,8.40
2023-04-17T07:31:13.484Z,9.43
2023-04-17T07:33:41.901Z,8.13
2023-04-17T07:36:19.211Z,8.30
2023-04-17T07:38:49.593Z,8.75
2023-04-17T07:41:16.942Z,8.75
2023-04-17T07:43:46.875Z,8.70
2023-04-17T07:46:18.484Z,12.40
2023-04-17T07:48:49.459Z,10.15
2023-04-17T07:51:17.501Z,10.27
2023-04-17T07:53:47.037Z,15.45
2023-04-17T07:56:19.527Z,13.67
2023-04-17T07:58:47.172Z,11.98
2023-04-17T08:01:19.318Z,12.18
2023-04-17T08:03:51.577Z,8.70
2023-04-17T08:06:24.073Z,10.15
2023-04-17T08:08:51.556Z,5.80
2023-04-17T08:11:22.696Z,8.07
2023-04-17T08:13:50.540Z,6.68
2023-04-17T08:16:19.314Z,6.70
2023-04-17T08:18:50.041Z,6.85
2023-04-17T08:21:17.485Z,7.50
2023-04-17T08:23:44.779Z,6.25
2023-04-17T08:26:12.082Z,8.45
2023-04-17T08:28:39.668Z,9.25
2023-04-17T08:31:10.744Z,6.88
2023-04-17T08:33:38.224Z,7.17
2023-04-17T08:36:08.465Z,8.00
2023-04-17T08:38:38.510Z,5.65
2023-04-17T08:41:59.581Z,6.82
2023-04-17T08:44:28.543Z,5.63
2023-04-17T08:46:59.014Z,5.23
2023-04-17T08:49:29.551Z,5.03
2023-04-17T08:51:57.162Z,6.55
2023-04-17T08:54:24.564Z,4.25
2023-04-17T08:56:52.186Z,6.50
2023-04-17T08:59:19.380Z,5.33
2023-04-17T09:02:02.451Z,6.13
2023-04-17T09:04:40.759Z,5.30
2023-04-17T09:07:10.083Z,5.00
2023-04-17T09:09:52.126Z,6.00
2023-04-17T09:12:22.695Z,8.40
2023-04-17T09:14:50.493Z,6.38
2023-04-17T09:17:18.502Z,7.50
2023-04-17T09:20:18.451Z,11.50
2023-04-17T09:22:46.847Z,8.30
2023-04-17T09:25:21.131Z,8.30
2023-04-17T09:27:48.821Z,5.82
2023-04-17T09:30:16.636Z,11.52
2023-04-17T09:32:44.131Z,9.00
2023-04-17T09:35:14.379Z,10.13
2023-04-17T09:37:48.985Z,12.77
2023-04-17T09:40:17.183Z,9.57
2023-04-17T09:43:01.268Z,6.95
2023-04-17T09:45:33.976Z,7.55
2023-04-17T09:48:04.958Z,6.90
2023-04-17T09:50:33.221Z,7.95
2023-04-17T09:53:01.905Z,6.53
2023-04-17T09:55:32.014Z,7.32
2023-04-17T09:58:01.792Z,7.15
2023-04-17T10:00:32.820Z,6.65
2023-04-17T10:03:01.435Z,7.20
2023-04-17T10:05:30.537Z,6.28
2023-04-17T10:08:01.129Z,8.88
2023-04-17T10:10:37.107Z,6.45
2023-04-17T10:13:11.628Z,7.32
2023-04-17T10:15:39.649Z,7.17
2023-04-17T10:18:24.233Z,6.05
2023-04-17T10:20:55.786Z,10.50
2023-04-17T10:23:27.149Z,9.38
2023-04-17T10:26:14.767Z,7.72
2023-04-17T10:28:51.373Z,6.30
2023-04-17T10:31:18.990Z,8.85
2023-04-17T10:33:50.296Z,9.43
2023-04-17T10:36:36.752Z,10.45
2023-04-17T10:39:18.071Z,6.32
2023-04-17T10:42:04.861Z,9.43
2023-04-17T10:44:54.181Z,7.32
2023-04-17T10:47:33.371Z,8.23
2023-04-17T10:50:02.538Z,8.30
2023-04-17T10:52:42.339Z,9.32
2023-04-17T10:55:21.419Z,7.30
2023-04-17T10:58:03.437Z,6.60
2023-04-17T11:00:37.646Z,9.07
2023-04-17T11:03:06.220Z,7.65
2023-04-17T11:05:40.441Z,7.03
2023-04-17T11:08:08.260Z,8.27
2023-04-17T11:10:42.248Z,6.32
2023-04-17T11:13:10.799Z,5.15
2023-04-17T11:15:43.200Z,4.68
2023-04-17T11:18:13.545Z,7.03
2023-04-17T11:20:47.574Z,4.17
2023-04-17T11:23:16.732Z,5.88
2023-04-17T11:25:46.142Z,4.80
2023-04-17T11:28:13.701Z,19.25
2023-04-17T11:30:45.218Z,11.75
2023-04-17T11:33:13.290Z,9.93
2023-04-17T11:35:44.372Z,10.15
2023-04-17T11:38:12.809Z,13.77
2023-04-17T11:40:47.907Z,9.98
2023-04-17T11:43:19.298Z,9.65
2023-04-17T11:45:49.066Z,8.50
2023-04-17T11:48:16.964Z,10.27
2023-04-17T11:50:45.558Z,11.38
2023-04-17T11:53:17.366Z,13.50
2023-04-17T11:55:52.384Z,15.82
2023-04-17T11:58:29.883Z,21.87
2023-04-17T12:01:10.574Z,9.07
2023-04-17T12:04:06.739Z,8.40
2023-04-17T12:06:39.685Z,7.85
2023-04-17T12:09:23.181Z,10.88
2023-04-17T12:11:56.939Z,6.15
2023-04-17T12:14:29.593Z,18.23
2023-04-17T12:17:10.265Z,10.05
2023-04-17T12:19:50.886Z,9.02
2023-04-17T12:22:24.931Z,9.93
2023-04-17T12:24:54.840Z,6.90
2023-04-17T12:27:27.193Z,4.95
2023-04-17T12:32:49.376Z,4.55
2023-04-17T12:35:22.580Z,3.25
2023-04-17T12:37:51.810Z,3.85
2023-04-17T12:40:21.392Z,3.30
2023-04-17T12:42:51.433Z,7.80
2023-04-17T12:45:23.257Z,8.35
2023-04-17T12:47:56.944Z,5.93
2023-04-17T12:50:27.252Z,5.82
2023-04-17T12:53:01.773Z,4.70
2023-04-17T12:55:38.898Z,5.63
2023-04-17T12:58:11.121Z,13.50
2023-04-17T13:00:45.256Z,18.65
2023-04-17T13:03:18.986Z,10.23
2023-04-17T13:05:46.842Z,6.60
2023-04-17T13:08:17.187Z,6.35
2023-04-17T13:10:44.557Z,6.93
2023-04-17T13:13:12.021Z,4.47
2023-04-17T13:15:39.402Z,2.40
2023-04-17T13:18:06.759Z,2.78
2023-04-17T13:20:36.485Z,4.80
2023-04-17T13:23:08.180Z,9.45
2023-04-17T13:25:36.153Z,11.15
2023-04-17T13:28:09.708Z,11.30
2023-04-17T13:30:37.658Z,12.40
2023-04-17T13:33:08.428Z,17.70
2023-04-17T13:35:38.873Z,27.83
2023-04-17T13:38:09.438Z,19.38
2023-04-17T13:40:38.953Z,19.90
2023-04-17T13:43:09.370Z,19.15
2023-04-17T13:45:37.989Z,12.32
2023-04-17T13:48:05.555Z,9.25
2023-04-17T13:50:37.122Z,12.90
2023-04-17T13:53:04.913Z,6.32
2023-04-17T13:55:32.077Z,8.10
2023-04-17T13:58:02.129Z,8.65
2023-04-17T14:00:29.731Z,8.95
2023-04-17T14:02:59.255Z,6.80
2023-04-17T14:05:26.847Z,7.22
2023-04-17T14:07:54.410Z,6.32
2023-04-17T14:10:25.017Z,10.45
2023-04-17T14:12:55.608Z,8.95
2023-04-17T14:15:25.263Z,10.13
2023-04-17T14:17:53.968Z,15.25
2023-04-17T14:20:21.464Z,11.55
2023-04-17T14:22:48.779Z,6.68
2023-04-17T14:25:16.327Z,7.65
2023-04-17T14:27:43.700Z,5.57
2023-04-17T14:30:11.228Z,5.95
2023-04-17T14:32:41.561Z,4.30
2023-04-17T14:35:09.101Z,7.18
2023-04-17T14:37:36.421Z,4.57
2023-04-17T14:40:11.081Z,7.53
2023-04-17T14:42:53.415Z,6.75
2023-04-17T14:45:22.676Z,5.40
2023-04-17T14:47:55.936Z,5.40
2023-04-17T14:50:23.511Z,3.95
2023-04-17T14:52:52.785Z,5.15
2023-04-17T14:55:20.308Z,5.50
2023-04-17T14:57:47.724Z,2.97
2023-04-17T15:00:15.756Z,4.85
2023-04-17T15:02:43.278Z,4.28
2023-04-17T15:05:11.504Z,3.28
2023-04-17T15:07:41.784Z,3.50
2023-04-17T15:10:09.428Z,2.80
2023-04-17T15:12:36.948Z,2.42
2023-04-17T15:15:08.300Z,3.65
2023-04-17T15:17:40.810Z,3.40
2023-04-17T15:20:09.477Z,3.47
2023-04-17T15:22:38.314Z,3.45
2023-04-17T15:25:07.043Z,2.40
2023-04-17T15:27:35.351Z,3.15
2023-04-17T15:30:08.487Z,2.92
2023-04-17T15:32:36.054Z,3.10
2023-04-17T15:35:04.085Z,2.33
2023-04-17T15:37:34.356Z,3.70
2023-04-17T15:40:19.966Z,4.82
2023-04-17T15:42:47.308Z,6.68
2023-04-17T15:45:15.435Z,4.23
2023-04-17T15:47:46.800Z,3.15
2023-04-17T15:50:14.946Z,2.15
2023-04-17T15:52:42.391Z,2.47
2023-04-17T15:55:13.001Z,1.52
2023-04-17T15:57:41.783Z,8.00
2023-04-17T16:00:11.809Z,4.15
2023-04-17T16:02:39.375Z,5.13
2023-04-17T16:05:10.263Z,2.50
2023-04-17T16:07:41.077Z,4.32
2023-04-17T16:10:20.162Z,3.77
2023-04-17T16:12:47.554Z,3.40
2023-04-17T16:15:19.406Z,3.10
2023-04-17T16:18:01.976Z,5.15
2023-04-17T16:20:29.741Z,3.53
2023-04-17T16:22:59.936Z,4.60
2023-04-17T16:25:27.504Z,4.75
2023-04-17T16:28:02.670Z,7.10
2023-04-17T16:30:31.022Z,6.95
2023-04-17T16:33:01.463Z,5.68
2023-04-17T16:35:30.428Z,4.47
2023-04-17T16:37:57.906Z,4.68
2023-04-17T16:40:28.070Z,3.90
2023-04-17T16:42:58.270Z,6.50
2023-04-17T16:45:28.514Z,8.30
2023-04-17T16:47:56.027Z,5.43
2023-04-17T16:50:25.563Z,5.30
2023-04-17T16:52:55.517Z,3.70
2023-04-17T16:55:24.224Z,3.40
2023-04-17T16:57:54.982Z,5.28
2023-04-17T17:00:24.147Z,4.88
2023-04-17T17:02:53.593Z,4.17
2023-04-17T17:05:23.499Z,3.25
2023-04-17T17:08:01.429Z,3.42
2023-04-17T17:10:28.624Z,4.93
2023-04-17T17:12:56.220Z,4.07
2023-04-17T17:15:24.713Z,3.70
2023-04-17T17:17:59.109Z,5.88
2023-04-17T17:20:29.801Z,3.53
2023-04-17T17:23:04.515Z,4.47
2023-04-17T17:25:31.986Z,4.70
2023-04-17T17:31:57.329Z,3.80
2023-04-17T17:34:26.956Z,4.85
2023-04-17T17:36:58.936Z,3.05
2023-04-17T17:39:30.031Z,4.07
2023-04-17T17:41:59.122Z,5.93
2023-04-17T17:44:26.375Z,5.55
2023-04-17T17:46:53.659Z,5.80
2023-04-17T17:49:23.298Z,6.82
2023-04-17T17:51:50.591Z,8.35
2023-04-17T17:54:24.291Z,8.70
2023-04-17T17:56:52.118Z,5.25
2023-04-17T17:59:22.482Z,5.00
2023-04-17T18:01:50.925Z,5.03
2023-04-17T18:04:20.562Z,5.38
2023-04-17T18:06:48.168Z,5.70
2023-04-17T18:09:17.995Z,5.78
2023-04-17T18:11:46.061Z,5.18
2023-04-17T18:14:18.072Z,5.07
2023-04-17T18:16:45.832Z,6.47
2023-04-17T18:19:13.475Z,6.90
2023-04-17T18:21:44.613Z,6.65
2023-04-17T18:24:13.527Z,5.72
2023-04-17T18:26:43.962Z,5.22
2023-04-17T18:29:11.263Z,5.82
2023-04-17T18:31:41.819Z,5.73
2023-04-17T18:34:09.289Z,8.15
2023-04-17T18:36:36.634Z,9.93
2023-04-17T18:39:03.852Z,9.02
2023-04-17T18:41:31.115Z,8.63
2023-04-17T18:43:58.332Z,5.78
2023-04-17T18:46:28.568Z,5.65
2023-04-17T18:48:56.622Z,6.40
2023-04-17T18:51:23.924Z,6.07
2023-04-17T18:53:51.700Z,6.28
2023-04-17T18:56:19.057Z,5.28
2023-04-17T18:58:46.331Z,8.57
2023-04-17T19:01:13.700Z,6.25
2023-04-17T19:03:49.973Z,6.40
2023-04-17T19:06:19.765Z,5.38
2023-04-17T19:08:47.625Z,5.70
2023-04-17T19:11:17.403Z,4.30
2023-04-17T19:13:45.385Z,5.22
2023-04-17T19:16:13.210Z,5.55
2023-04-17T19:18:40.376Z,7.30
2023-04-17T19:21:07.825Z,7.28
2023-04-17T19:23:36.496Z,7.88
2023-04-17T19:26:03.995Z,8.07
2023-04-17T19:28:31.239Z,7.15
2023-04-17T19:31:01.492Z,7.35
2023-04-17T19:33:28.764Z,6.15
2023-04-17T19:35:58.275Z,6.53
2023-04-17T19:38:29.161Z,4.68
2023-04-17T19:41:24.365Z,4.00
2023-04-17T19:43:52.378Z,3.55
2023-04-17T19:46:25.428Z,3.17
2023-04-17T19:48:59.472Z,2.95
2023-04-17T19:51:29.476Z,3.50
2023-04-17T19:53:56.673Z,4.05
2023-04-17T19:56:24.084Z,6.05
2023-04-17T19:58:53.632Z,4.53
2023-04-17T20:01:21.053Z,3.03
2023-04-17T20:03:48.819Z,3.38
2023-04-17T20:08:58.826Z,5.07
2023-04-17T20:11:26.673Z,3.70
2023-04-17T20:13:56.718Z,4.77
2023-04-17T20:16:26.323Z,3.03
2023-04-17T20:18:53.703Z,2.33
2023-04-17T20:21:22.781Z,3.97
2023-04-17T20:23:50.210Z,2.92
2023-04-17T20:26:17.564Z,3.67
2023-04-17T20:28:44.842Z,2.70
2023-04-17T20:31:12.588Z,3.08
2023-04-17T20:33:42.322Z,3.25
2023-04-17T20:36:11.922Z,2.70
2023-04-17T20:38:39.412Z,4.53
2023-04-17T20:41:06.869Z,4.00
2023-04-17T20:43:34.357Z,2.90
2023-04-17T20:46:02.830Z,2.42
2023-04-17T20:48:30.359Z,2.95
2023-04-17T20:51:03.000Z,4.07
2023-04-17T20:53:40.629Z,3.03
2023-04-17T20:56:08.187Z,1.98
2023-04-17T20:58:35.488Z,3.15
2023-04-17T21:01:05.741Z,2.72
2023-04-17T21:03:33.745Z,4.63
2023-04-17T21:06:02.552Z,5.23
2023-04-17T21:08:30.465Z,4.80
2023-04-17T21:10:57.892Z,6.15
2023-04-17T21:13:28.033Z,3.25
2023-04-17T21:15:55.516Z,3.70
2023-04-17T21:18:27.670Z,3.10
2023-04-17T21:20:55.090Z,3.58
2023-04-17T21:23:28.589Z,4.15
2023-04-17T21:25:59.010Z,3.70
2023-04-17T21:28:26.391Z,4.35
2023-04-17T21:30:57.764Z,4.57
2023-04-17T21:33:25.132Z,3.53
2023-04-17T21:35:57.804Z,4.53
2023-04-17T21:38:27.880Z,3.72
2023-04-17T21:40:55.167Z,2.38
2023-04-17T21:43:27.964Z,4.57
2023-04-17T21:45:57.376Z,2.50
2023-04-17T21:48:27.869Z,2.92
2023-04-17T21:51:02.796Z,3.83
2023-04-17T21:53:30.704Z,4.32
2023-04-17T21:56:01.137Z,4.07
2023-04-17T21:58:28.888Z,4.25
2023-04-17T22:00:58.453Z,4.38
2023-04-17T22:03:29.675Z,5.97
2023-04-17T22:05:59.849Z,5.63
2023-04-17T22:08:27.231Z,2.47
2023-04-17T22:10:54.516Z,3.50
2023-04-17T22:13:21.822Z,3.47
2023-04-17T22:15:49.768Z,4.43
2023-04-17T22:18:17.461Z,3.10
2023-04-17T22:20:44.932Z,3.30
2023-04-17T22:23:12.235Z,5.88
2023-04-17T22:25:39.502Z,4.97
2023-04-17T22:28:07.806Z,4.38
2023-04-17T22:30:35.074Z,3.13
2023-04-17T22:33:02.796Z,3.50
2023-04-17T22:35:31.269Z,3.25
2023-04-17T22:37:58.833Z,3.88
2023-04-17T22:40:26.279Z,4.25
2023-04-17T22:42:53.828Z,4.60
2023-04-17T22:45:21.345Z,3.42
2023-04-17T22:47:48.856Z,3.53
2023-04-17T22:50:16.292Z,4.28
2023-04-17T22:52:47.901Z,6.70
2023-04-17T22:55:15.569Z,6.13
2023-04-17T22:57:45.956Z,4.95
2023-04-17T23:00:13.437Z,4.40
2023-04-17T23:02:42.293Z,3.88
2023-04-17T23:05:12.315Z,4.57
2023-04-17T23:07:41.495Z,3.13
2023-04-17T23:10:11.198Z,5.72
2023-04-17T23:12:38.546Z,4.30
2023-04-17T23:15:08.754Z,3.58
2023-04-17T23:17:36.077Z,5.65
2023-04-17T23:20:04.297Z,4.97
2023-04-17T23:22:31.614Z,3.10
2023-04-17T23:24:58.926Z,4.27
2023-04-17T23:27:27.308Z,3.42
2023-04-17T23:29:57.261Z,2.55
2023-04-17T23:32:24.466Z,3.13
2023-04-17T23:34:52.041Z,3.80
2023-04-17T23:37:19.360Z,2.87
2023-04-17T23:39:49.260Z,3.80
2023-04-17T23:42:17.830Z,5.28
2023-04-17T23:44:45.127Z,3.08
2023-04-17T23:47:12.892Z,2.85
2023-04-17T23:49:40.579Z,3.95
2023-04-17T23:52:11.151Z,6.63
2023-04-17T23:54:39.647Z,2.85
2023-04-17T23:57:07.156Z,3.45
2023-04-17T23:59:34.502Z,3.05
